createdAt,value
2016-06-14T00:00:10.412Z,99.99
2016-06-14T00:01:10.401Z,99.99
2016-06-14T00:02:10.419Z,99.99
2016-06-14T00:03:10.421Z,99.99
2016-06-14T00:04:10.410Z,99.99
2016-06-14T00:05:10.412Z,99.99
2016-06-14T00:06:10.400Z,99.99
2016-06-14T00:07:10.403Z,99.99
2016-06-14T00:08:10.390Z,99.99
2016-06-14T00:09:10.393Z,99.99
2016-06-14T00:10:10.396Z,99.99
2016-06-14T00:11:10.399Z,99.99
2016-06-14T00:12:10.388Z,99.99
2016-06-14T00:13:10.390Z,99.99
2016-06-14T00:14:10.393Z,99.99
2016-06-14T00:15:10.569Z,99.99
2016-06-14T00:16:10.383Z,99.99
2016-06-14T00:17:10.387Z,99.99
2016-06-14T00:18:10.390Z,99.99
2016-06-14T00:19:10.378Z,99.99
2016-06-14T00:20:10.381Z,99.99
2016-06-14T00:21:10.384Z,99.99
2016-06-14T00:22:10.371Z,99.99
2016-06-14T00:23:10.374Z,99.99
2016-06-14T00:24:10.361Z,99.99
2016-06-14T00:25:10.364Z,99.99
2016-06-14T00:26:10.367Z,99.99
2016-06-14T00:27:10.370Z,99.99
2016-06-14T00:28:10.358Z,99.99
2016-06-14T00:29:11.080Z,99.99
2016-06-14T00:30:10.364Z,99.99
2016-06-14T00:31:10.351Z,99.99
2016-06-14T00:32:11.605Z,99.99
2016-06-14T00:33:10.608Z,99.99
2016-06-14T00:34:10.860Z,99.99
2016-06-14T00:35:10.348Z,99.99
2016-06-14T00:36:10.351Z,99.99
2016-06-14T00:37:10.339Z,99.99
2016-06-14T00:38:10.342Z,99.99
2016-06-14T00:39:10.345Z,99.99
2016-06-14T00:40:10.349Z,99.99
2016-06-14T00:41:10.335Z,99.99
2016-06-14T00:42:10.541Z,99.99
2016-06-14T00:43:25.217Z,99.99
2016-06-14T00:44:10.283Z,99.99
2016-06-14T00:45:10.332Z,99.99
2016-06-14T00:46:10.336Z,99.99
2016-06-14T00:47:10.322Z,99.99
2016-06-14T00:48:10.342Z,99.99
2016-06-14T00:49:11.891Z,99.99
2016-06-14T00:50:11.551Z,99.99
2016-06-14T00:51:10.897Z,99.99
2016-06-14T00:52:10.322Z,99.99
2016-06-14T00:53:10.341Z,99.99
2016-06-14T00:54:10.501Z,99.99
2016-06-14T00:55:10.159Z,99.99
2016-06-14T00:56:10.320Z,99.99
2016-06-14T00:57:10.307Z,99.99
2016-06-14T00:58:11.278Z,99.99
2016-06-14T01:00:11.754Z,99.99
2016-06-14T01:01:10.850Z,99.99
2016-06-14T01:02:10.306Z,99.99
2016-06-14T01:03:10.294Z,99.99
2016-06-14T01:04:10.594Z,99.99
2016-06-14T01:05:10.145Z,99.99
2016-06-14T01:06:10.287Z,99.99
2016-06-14T01:07:10.291Z,99.99
2016-06-14T01:08:10.293Z,99.99
2016-06-14T01:09:10.296Z,99.99
2016-06-14T01:10:10.285Z,99.99
2016-06-14T01:11:10.288Z,99.99
2016-06-14T01:12:10.290Z,99.99
2016-06-14T01:13:10.278Z,99.99
2016-06-14T01:14:10.281Z,99.99
2016-06-14T01:15:10.128Z,99.99
2016-06-14T01:16:10.114Z,99.99
2016-06-14T01:17:10.274Z,99.99
2016-06-14T01:18:10.294Z,99.99
2016-06-14T01:19:10.280Z,99.99
2016-06-14T01:20:10.268Z,99.99
2016-06-14T01:21:10.271Z,99.99
2016-06-14T01:22:10.275Z,99.99
2016-06-14T01:23:10.261Z,99.99
2016-06-14T01:24:10.264Z,99.99
2016-06-14T01:25:10.268Z,99.99
2016-06-14T01:26:10.271Z,99.99
2016-06-14T01:27:10.258Z,99.99
2016-06-14T01:28:10.261Z,99.99
2016-06-14T01:29:10.264Z,99.99
2016-06-14T01:30:11.174Z,99.99
2016-06-14T01:31:10.255Z,99.99
2016-06-14T01:32:10.258Z,99.99
2016-06-14T01:33:10.245Z,99.99
2016-06-14T01:34:10.248Z,99.99
2016-06-14T01:35:10.251Z,99.99
2016-06-14T01:36:10.240Z,99.99
2016-06-14T01:37:10.085Z,99.99
2016-06-14T01:38:10.245Z,99.99
2016-06-14T01:39:10.233Z,99.99
2016-06-14T01:40:10.236Z,99.99
2016-06-14T01:41:10.254Z,99.99
2016-06-14T01:42:10.226Z,99.99
2016-06-14T01:43:10.229Z,99.99
2016-06-14T01:44:10.232Z,99.99
2016-06-14T01:45:10.688Z,99.99
2016-06-14T01:46:10.223Z,99.99
2016-06-14T01:47:10.227Z,99.99
2016-06-14T01:48:10.229Z,99.99
2016-06-14T01:49:10.232Z,99.99
2016-06-14T01:50:10.250Z,99.99
2016-06-14T01:51:10.223Z,99.99
2016-06-14T01:52:10.569Z,99.99
2016-06-14T01:53:10.620Z,99.99
2016-06-14T01:54:10.215Z,99.99
2016-06-14T01:55:10.860Z,99.99
2016-06-14T01:56:10.066Z,99.99
2016-06-14T01:57:10.210Z,99.99
2016-06-14T01:58:10.213Z,99.99
2016-06-14T01:59:10.200Z,99.99
2016-06-14T02:00:10.953Z,99.99
2016-06-14T02:01:10.206Z,99.99
2016-06-14T02:02:10.506Z,99.99
2016-06-14T02:03:10.197Z,99.99
2016-06-14T02:04:10.747Z,99.99
2016-06-14T02:05:10.203Z,99.99
2016-06-14T02:06:10.191Z,99.99
2016-06-14T02:07:25.913Z,99.99
2016-06-14T02:08:11.119Z,99.99
2016-06-14T02:09:11.700Z,99.99
2016-06-14T02:10:11.469Z,99.99
2016-06-14T02:11:10.284Z,99.99
2016-06-14T02:12:10.193Z,99.99
2016-06-14T02:13:10.181Z,99.99
2016-06-14T02:14:10.497Z,99.99
2016-06-14T02:15:10.405Z,99.99
2016-06-14T02:16:10.174Z,99.99
2016-06-14T02:17:10.177Z,99.99
2016-06-14T02:18:11.369Z,99.99
2016-06-14T02:19:10.167Z,99.99
2016-06-14T02:20:10.170Z,99.99
2016-06-14T02:21:10.174Z,99.99
2016-06-14T02:22:10.020Z,99.99
2016-06-14T02:23:10.305Z,99.99
2016-06-14T02:24:10.168Z,99.99
2016-06-14T02:25:10.171Z,99.99
2016-06-14T02:26:10.158Z,99.99
2016-06-14T02:27:10.161Z,99.99
2016-06-14T02:28:10.164Z,99.99
2016-06-14T02:29:10.167Z,99.99
2016-06-14T02:30:10.014Z,99.99
2016-06-14T02:31:10.158Z,99.99
2016-06-14T02:32:10.161Z,99.99
2016-06-14T02:33:10.164Z,99.99
2016-06-14T02:34:10.152Z,99.99
2016-06-14T02:35:10.155Z,99.99
2016-06-14T02:36:10.157Z,99.99
2016-06-14T02:37:10.145Z,99.99
2016-06-14T02:38:10.148Z,99.99
2016-06-14T02:39:10.151Z,99.99
2016-06-14T02:40:10.139Z,99.99
2016-06-14T02:41:10.142Z,99.99
2016-06-14T02:42:10.146Z,99.99
2016-06-14T02:43:10.148Z,99.99
2016-06-14T02:44:10.152Z,99.99
2016-06-14T02:45:10.139Z,99.99
2016-06-14T02:46:10.125Z,99.99
2016-06-14T02:47:10.129Z,99.99
2016-06-14T02:48:10.132Z,99.99
2016-06-14T02:49:09.964Z,99.99
2016-06-14T02:50:10.123Z,99.99
2016-06-14T02:51:10.126Z,99.99
2016-06-14T02:52:10.129Z,99.99
2016-06-14T02:53:10.116Z,99.99
2016-06-14T02:54:10.119Z,99.99
2016-06-14T02:55:10.122Z,99.99
2016-06-14T02:56:10.111Z,99.99
2016-06-14T02:57:10.175Z,99.99
2016-06-14T02:58:10.116Z,99.99
2016-06-14T02:59:10.245Z,99.99
2016-06-14T03:00:10.168Z,99.99
2016-06-14T03:01:10.188Z,99.99
2016-06-14T03:02:10.160Z,99.99
2016-06-14T03:03:10.100Z,99.99
2016-06-14T03:04:09.947Z,99.99
2016-06-14T03:05:09.966Z,99.99
2016-06-14T03:06:10.109Z,99.99
2016-06-14T03:07:10.113Z,99.99
2016-06-14T03:08:10.100Z,99.99
2016-06-14T03:10:11.153Z,99.99
2016-06-14T03:11:10.499Z,99.99
2016-06-14T03:12:10.097Z,99.99
2016-06-14T03:13:10.084Z,99.99
2016-06-14T03:14:10.086Z,99.99
2016-06-14T03:15:10.089Z,99.99
2016-06-14T03:16:10.093Z,99.99
2016-06-14T03:17:10.081Z,99.99
2016-06-14T03:18:10.084Z,99.99
2016-06-14T03:19:10.181Z,99.99
2016-06-14T03:20:10.074Z,99.99
2016-06-14T03:21:10.077Z,99.99
2016-06-14T03:23:10.083Z,99.99
2016-06-14T03:24:10.072Z,99.99
2016-06-14T03:25:10.074Z,99.99
2016-06-14T03:26:11.405Z,99.99
2016-06-14T03:27:11.034Z,99.99
2016-06-14T03:28:10.068Z,99.99
2016-06-14T03:29:10.570Z,99.99
2016-06-14T03:30:10.480Z,99.99
2016-06-14T03:31:10.263Z,99.99
2016-06-14T03:32:10.064Z,99.99
2016-06-14T03:33:10.052Z,99.99
2016-06-14T03:34:10.055Z,99.99
2016-06-14T03:35:10.058Z,99.99
2016-06-14T03:36:10.154Z,99.99
2016-06-14T03:37:10.048Z,99.99
2016-06-14T03:38:10.052Z,99.99
2016-06-14T03:39:10.055Z,99.99
2016-06-14T03:40:10.324Z,99.99
2016-06-14T03:41:10.044Z,99.99
2016-06-14T03:42:10.047Z,99.99
2016-06-14T03:43:10.067Z,99.99
2016-06-14T03:44:10.054Z,99.99
2016-06-14T03:45:10.026Z,99.99
2016-06-14T03:46:10.045Z,99.99
2016-06-14T03:47:10.048Z,99.99
2016-06-14T03:48:09.895Z,99.99
2016-06-14T03:49:10.038Z,99.99
2016-06-14T03:50:10.041Z,99.99
2016-06-14T03:51:10.044Z,99.99
2016-06-14T03:52:10.032Z,99.99
2016-06-14T03:53:10.050Z,99.99
2016-06-14T03:54:10.039Z,99.99
2016-06-14T03:55:10.042Z,99.99
2016-06-14T03:56:10.028Z,99.99
2016-06-14T03:57:10.032Z,99.99
2016-06-14T03:58:10.035Z,99.99
2016-06-14T03:59:10.022Z,99.99
2016-06-14T04:00:10.025Z,99.99
2016-06-14T04:01:10.028Z,99.99
2016-06-14T04:02:10.016Z,99.99
2016-06-14T04:03:10.019Z,99.99
2016-06-14T04:04:10.023Z,99.99
2016-06-14T04:05:10.009Z,99.99
2016-06-14T04:06:09.856Z,99.99
2016-06-14T04:07:10.015Z,99.99
2016-06-14T04:08:10.019Z,99.99
2016-06-14T04:09:10.006Z,99.99
2016-06-14T04:10:10.008Z,99.99
2016-06-14T04:11:10.012Z,99.99
2016-06-14T04:12:10.015Z,99.99
2016-06-14T04:13:10.003Z,99.99
2016-06-14T04:14:10.006Z,99.99
2016-06-14T04:15:10.009Z,99.99
2016-06-14T04:16:10.199Z,99.99
2016-06-14T04:17:09.999Z,99.99
2016-06-14T04:18:10.002Z,99.99
2016-06-14T04:19:10.006Z,99.99
2016-06-14T04:20:10.009Z,99.99
2016-06-14T04:21:09.996Z,99.99
2016-06-14T04:22:10.000Z,99.99
2016-06-14T04:23:10.002Z,99.99
2016-06-14T04:24:10.006Z,99.99
2016-06-14T04:25:09.993Z,99.99
2016-06-14T04:26:10.012Z,99.99
2016-06-14T04:27:09.999Z,99.99
2016-06-14T04:28:10.737Z,99.99
2016-06-14T04:29:09.989Z,99.99
2016-06-14T04:30:10.008Z,99.99
2016-06-14T04:31:09.996Z,99.99
2016-06-14T04:32:10.202Z,99.99
2016-06-14T04:33:09.986Z,99.99
2016-06-14T04:34:09.990Z,99.99
2016-06-14T04:35:09.993Z,99.99
2016-06-14T04:36:09.979Z,99.99
2016-06-14T04:37:10.888Z,99.99
2016-06-14T04:38:10.783Z,99.99
2016-06-14T04:39:10.130Z,99.99
2016-06-14T04:40:10.539Z,99.99
2016-06-14T04:41:10.433Z,99.99
2016-06-14T04:42:09.982Z,99.99
2016-06-14T04:43:10.282Z,99.99
2016-06-14T04:44:10.754Z,99.99
2016-06-14T04:45:09.991Z,99.99
2016-06-14T04:46:10.104Z,99.99
2016-06-14T04:47:09.983Z,99.99
2016-06-14T04:48:09.986Z,99.99
2016-06-14T04:49:09.988Z,99.99
2016-06-14T04:50:10.070Z,99.99
2016-06-14T04:51:10.292Z,99.99
2016-06-14T04:52:09.982Z,99.99
2016-06-14T04:53:11.298Z,99.99
2016-06-14T04:54:10.832Z,99.99
2016-06-14T04:55:09.976Z,99.99
2016-06-14T04:56:10.822Z,99.99
2016-06-14T04:57:10.576Z,99.99
2016-06-14T04:58:09.969Z,99.99
2016-06-14T04:59:09.972Z,99.99
2016-06-14T05:00:09.975Z,99.99
2016-06-14T05:01:10.526Z,99.99
2016-06-14T05:02:09.982Z,99.99
2016-06-14T05:03:09.985Z,99.99
2016-06-14T05:04:09.972Z,99.99
2016-06-14T05:05:09.975Z,99.99
2016-06-14T05:06:09.978Z,99.99
2016-06-14T05:07:09.981Z,99.99
2016-06-14T05:08:09.984Z,99.99
2016-06-14T05:09:09.972Z,99.99
2016-06-14T05:10:09.975Z,99.99
2016-06-14T05:11:09.979Z,99.99
2016-06-14T05:12:09.982Z,99.99
2016-06-14T05:13:09.985Z,99.99
2016-06-14T05:14:09.988Z,99.99
2016-06-14T05:15:09.991Z,99.99
2016-06-14T05:16:09.994Z,99.99
2016-06-14T05:17:09.978Z,99.99
2016-06-14T05:18:09.981Z,99.99
2016-06-14T05:19:10.000Z,99.99
2016-06-14T05:20:09.987Z,99.99
2016-06-14T05:21:09.974Z,99.99
2016-06-14T05:22:09.977Z,99.99
2016-06-14T05:23:09.980Z,99.99
2016-06-14T05:24:09.983Z,99.99
2016-06-14T05:25:09.831Z,99.99
2016-06-14T05:26:09.990Z,99.99
2016-06-14T05:27:09.978Z,99.99
2016-06-14T05:28:09.824Z,99.99
2016-06-14T05:29:09.984Z,99.99
2016-06-14T05:30:09.987Z,99.99
2016-06-14T05:31:09.990Z,99.99
2016-06-14T05:32:09.992Z,99.99
2016-06-14T05:33:09.996Z,99.99
2016-06-14T05:34:09.999Z,99.99
2016-06-14T05:35:09.986Z,99.99
2016-06-14T05:36:09.989Z,99.99
2016-06-14T05:37:09.837Z,99.99
2016-06-14T05:38:09.995Z,99.99
2016-06-14T05:39:09.999Z,99.99
2016-06-14T05:40:10.001Z,99.99
2016-06-14T05:41:10.004Z,99.99
2016-06-14T05:42:09.993Z,99.99
2016-06-14T05:43:09.996Z,99.99
2016-06-14T05:44:09.999Z,99.99
2016-06-14T05:45:10.002Z,99.99
2016-06-14T05:46:10.161Z,99.99
2016-06-14T05:47:10.758Z,99.99
2016-06-14T05:48:10.042Z,99.99
2016-06-14T05:49:10.701Z,99.99
2016-06-14T05:50:10.002Z,99.99
2016-06-14T05:51:10.004Z,99.99
2016-06-14T05:52:10.352Z,99.99
2016-06-14T05:53:09.995Z,99.99
2016-06-14T05:54:09.998Z,99.99
2016-06-14T05:55:10.000Z,99.99
2016-06-14T05:56:10.004Z,99.99
2016-06-14T05:57:10.523Z,99.99
2016-06-14T05:58:10.151Z,99.99
2016-06-14T05:59:10.013Z,99.99
2016-06-14T06:00:10.001Z,99.99
2016-06-14T06:01:10.113Z,99.99
2016-06-14T06:02:10.007Z,99.99
2016-06-14T06:03:10.385Z,99.99
2016-06-14T06:04:10.092Z,99.99
2016-06-14T06:05:10.001Z,99.99
2016-06-14T06:06:10.737Z,99.99
2016-06-14T06:07:10.007Z,99.99
2016-06-14T06:08:10.119Z,99.99
2016-06-14T06:09:10.013Z,99.99
2016-06-14T06:10:10.016Z,99.99
2016-06-14T06:11:10.019Z,99.99
2016-06-14T06:12:10.006Z,99.99
2016-06-14T06:13:10.728Z,99.99
2016-06-14T06:14:10.809Z,99.99
2016-06-14T06:15:10.109Z,99.99
2016-06-14T06:16:10.393Z,99.99
2016-06-14T06:17:10.022Z,99.99
2016-06-14T06:18:10.009Z,99.99
2016-06-14T06:19:10.013Z,99.99
2016-06-14T06:20:10.015Z,99.99
2016-06-14T06:21:10.018Z,99.99
2016-06-14T06:22:10.022Z,99.99
2016-06-14T06:23:10.025Z,99.99
2016-06-14T06:24:10.012Z,99.99
2016-06-14T06:25:10.031Z,99.99
2016-06-14T06:26:10.018Z,99.99
2016-06-14T06:27:10.021Z,99.99
2016-06-14T06:28:10.040Z,99.99
2016-06-14T06:29:10.028Z,99.99
2016-06-14T06:30:10.030Z,99.99
2016-06-14T06:31:10.034Z,99.99
2016-06-14T06:32:10.037Z,99.99
2016-06-14T06:33:10.040Z,99.99
2016-06-14T06:34:10.043Z,99.99
2016-06-14T06:35:10.031Z,99.99
2016-06-14T06:36:10.034Z,99.99
2016-06-14T06:37:10.037Z,99.99
2016-06-14T06:38:10.040Z,99.99
2016-06-14T06:39:10.043Z,99.99
2016-06-14T06:40:10.046Z,99.99
2016-06-14T06:41:10.049Z,99.99
2016-06-14T06:42:10.052Z,99.99
2016-06-14T06:43:10.056Z,99.99
2016-06-14T06:44:10.058Z,99.99
2016-06-14T06:45:10.061Z,99.99
2016-06-14T06:46:10.480Z,99.99
2016-06-14T06:47:10.133Z,99.99
2016-06-14T06:48:10.175Z,99.99
2016-06-14T06:49:10.201Z,99.99
2016-06-14T06:50:10.244Z,99.99
2016-06-14T06:51:10.270Z,99.99
2016-06-14T06:52:10.286Z,99.99
2016-06-14T06:53:10.304Z,99.99
2016-06-14T06:54:10.321Z,99.99
2016-06-14T06:55:10.338Z,99.99
2016-06-14T06:56:10.350Z,99.99
2016-06-14T06:57:10.358Z,99.99
2016-06-14T06:58:10.381Z,99.99
2016-06-14T06:59:10.374Z,99.99
2016-06-14T07:00:10.382Z,99.99
2016-06-14T07:01:10.841Z,99.99
2016-06-14T07:02:10.409Z,99.99
2016-06-14T07:03:10.398Z,99.99
2016-06-14T07:04:10.402Z,99.99
2016-06-14T07:05:11.611Z,99.99
2016-06-14T07:06:10.567Z,99.99
2016-06-14T07:07:10.962Z,99.99
2016-06-14T07:08:11.122Z,99.99
2016-06-14T07:09:10.470Z,99.99
2016-06-14T07:10:10.878Z,99.99
2016-06-14T07:11:10.882Z,99.99
2016-06-14T07:12:10.433Z,99.99
2016-06-14T07:13:10.436Z,99.99
2016-06-14T07:14:24.615Z,99.99
2016-06-14T07:16:10.446Z,99.99
2016-06-14T07:17:11.043Z,99.99
2016-06-14T07:18:24.627Z,99.99
2016-06-14T07:19:10.705Z,99.99
2016-06-14T07:20:10.303Z,99.99
2016-06-14T07:21:11.508Z,99.99
2016-06-14T07:22:10.996Z,99.99
2016-06-14T07:23:12.077Z,99.99
2016-06-14T07:24:10.487Z,99.99
2016-06-14T07:25:10.474Z,99.99
2016-06-14T07:26:10.508Z,99.99
2016-06-14T07:27:10.777Z,99.99
2016-06-14T07:28:10.499Z,99.99
2016-06-14T07:29:10.627Z,99.99
2016-06-14T07:30:10.880Z,99.99
2016-06-14T07:31:11.398Z,99.99
2016-06-14T07:32:10.511Z,99.99
2016-06-14T07:33:11.921Z,99.99
2016-06-14T07:34:10.502Z,99.99
2016-06-14T07:35:10.504Z,99.99
2016-06-14T07:36:10.508Z,99.99
2016-06-14T07:37:10.511Z,99.99
2016-06-14T07:38:10.513Z,99.99
2016-06-14T07:39:10.516Z,99.99
2016-06-14T07:40:10.520Z,99.99
2016-06-14T07:41:10.523Z,99.99
2016-06-14T07:42:10.510Z,99.99
2016-06-14T07:43:10.529Z,99.99
2016-06-14T07:44:10.532Z,99.99
2016-06-14T07:45:10.535Z,99.99
2016-06-14T07:46:10.398Z,99.99
2016-06-14T07:47:10.541Z,99.99
2016-06-14T07:48:10.544Z,99.99
2016-06-14T07:49:10.548Z,99.99
2016-06-14T07:50:10.551Z,99.99
2016-06-14T07:51:10.553Z,99.99
2016-06-14T07:52:10.557Z,99.99
2016-06-14T07:53:10.560Z,99.99
2016-06-14T07:54:10.563Z,99.99
2016-06-14T07:55:10.566Z,99.99
2016-06-14T07:56:10.569Z,99.99
2016-06-14T07:57:10.572Z,99.99
2016-06-14T07:58:10.576Z,99.99
2016-06-14T07:59:10.594Z,99.99
2016-06-14T08:00:10.581Z,99.99
2016-06-14T08:01:10.897Z,99.99
2016-06-14T08:02:10.587Z,99.99
2016-06-14T08:03:10.591Z,99.99
2016-06-14T08:04:10.594Z,99.99
2016-06-14T08:05:10.597Z,99.99
2016-06-14T08:06:10.600Z,99.99
2016-06-14T08:07:10.602Z,99.99
2016-06-14T08:08:10.606Z,99.99
2016-06-14T08:09:10.609Z,99.99
2016-06-14T08:10:10.612Z,99.99
2016-06-14T08:11:10.615Z,99.99
2016-06-14T08:12:10.619Z,99.99
2016-06-14T08:13:10.637Z,99.99
2016-06-14T08:14:10.655Z,99.99
2016-06-14T08:15:10.658Z,99.99
2016-06-14T08:16:10.600Z,99.99
2016-06-14T08:17:10.664Z,99.99
2016-06-14T08:18:10.652Z,99.99
2016-06-14T08:19:10.640Z,99.99
2016-06-14T08:20:10.659Z,99.99
2016-06-14T08:21:10.662Z,99.99
2016-06-14T08:22:10.665Z,99.99
2016-06-14T08:23:10.668Z,99.99
2016-06-14T08:24:11.077Z,99.99
2016-06-14T08:25:11.081Z,99.99
2016-06-14T08:26:10.786Z,99.99
2016-06-14T08:27:11.226Z,99.99
2016-06-14T08:28:10.620Z,99.99
2016-06-14T08:29:11.093Z,99.99
2016-06-14T08:30:10.690Z,99.99
2016-06-14T08:31:10.723Z,99.99
2016-06-14T08:32:10.711Z,99.99
2016-06-14T08:33:11.605Z,99.99
2016-06-14T08:34:10.716Z,99.99
2016-06-14T08:35:10.720Z,99.99
2016-06-14T08:36:10.723Z,99.99
2016-06-14T08:37:10.929Z,99.99
2016-06-14T08:38:10.823Z,99.99
2016-06-14T08:39:10.748Z,99.99
2016-06-14T08:40:11.516Z,99.99
2016-06-14T08:41:12.051Z,99.99
2016-06-14T08:42:11.711Z,99.99
2016-06-14T08:43:10.761Z,99.99
2016-06-14T08:44:11.107Z,99.99
2016-06-14T08:45:11.454Z,99.99
2016-06-14T08:46:10.831Z,99.99
2016-06-14T08:47:10.773Z,99.99
2016-06-14T08:48:10.791Z,99.99
2016-06-14T08:49:11.419Z,99.99
2016-06-14T08:50:10.797Z,99.99
2016-06-14T08:51:10.817Z,99.99
2016-06-14T08:52:10.803Z,99.99
2016-06-14T08:53:10.806Z,99.99
2016-06-14T08:54:10.809Z,99.99
2016-06-14T08:55:10.829Z,99.99
2016-06-14T08:56:10.831Z,99.99
2016-06-14T08:57:10.835Z,99.99
2016-06-14T08:58:10.854Z,99.99
2016-06-14T08:59:10.856Z,99.99
2016-06-14T09:00:10.891Z,99.99
2016-06-14T09:01:11.113Z,99.99
2016-06-14T09:02:10.881Z,99.99
2016-06-14T09:03:10.869Z,99.99
2016-06-14T09:04:10.731Z,99.99
2016-06-14T09:05:10.890Z,99.99
2016-06-14T09:06:10.893Z,99.99
2016-06-14T09:07:10.896Z,99.99
2016-06-14T09:08:10.900Z,99.99
2016-06-14T09:09:10.903Z,99.99
2016-06-14T09:10:10.921Z,99.99
2016-06-14T09:11:10.768Z,99.99
2016-06-14T09:12:10.927Z,99.99
2016-06-14T09:13:10.931Z,99.99
2016-06-14T09:14:10.934Z,99.99
2016-06-14T09:15:10.953Z,99.99
2016-06-14T09:16:10.956Z,99.99
2016-06-14T09:17:10.974Z,99.99
2016-06-14T09:18:10.977Z,99.99
2016-06-14T09:19:10.980Z,99.99
2016-06-14T09:20:10.983Z,99.99
2016-06-14T09:21:10.987Z,99.99
2016-06-14T09:22:11.005Z,99.99
2016-06-14T09:23:11.009Z,99.99
2016-06-14T09:24:11.027Z,99.99
2016-06-14T09:25:11.015Z,99.99
2016-06-14T09:26:11.033Z,99.99
2016-06-14T09:27:11.036Z,99.99
2016-06-14T09:28:11.039Z,99.99
2016-06-14T09:29:11.042Z,99.99
2016-06-14T09:30:11.045Z,99.99
2016-06-14T09:31:11.533Z,99.99
2016-06-14T09:32:11.708Z,99.99
2016-06-14T09:33:11.070Z,99.99
2016-06-14T09:34:11.074Z,99.99
2016-06-14T09:35:11.092Z,99.99
2016-06-14T09:36:11.095Z,99.99
2016-06-14T09:37:11.099Z,99.99
2016-06-14T09:38:11.117Z,99.99
2016-06-14T09:39:11.120Z,99.99
2016-06-14T09:40:11.123Z,99.99
2016-06-14T09:41:11.125Z,99.99
2016-06-14T09:42:25.317Z,99.99
2016-06-14T09:43:11.851Z,99.99
2016-06-14T09:44:11.854Z,99.99
2016-06-14T09:45:11.171Z,99.99
2016-06-14T09:46:11.469Z,99.99
2016-06-14T09:47:11.177Z,99.99
2016-06-14T09:48:11.194Z,99.99
2016-06-14T09:49:11.197Z,99.99
2016-06-14T09:50:11.201Z,99.99
2016-06-14T09:52:25.395Z,99.99
2016-06-14T09:54:11.244Z,99.99
2016-06-14T09:55:11.263Z,99.99
2016-06-14T09:56:11.250Z,99.99
2016-06-14T09:57:11.253Z,99.99
2016-06-14T09:58:12.053Z,99.99
2016-06-14T10:00:11.716Z,99.99
2016-06-14T10:01:12.390Z,99.99
2016-06-14T10:02:11.316Z,99.99
2016-06-14T10:03:11.897Z,99.99
2016-06-14T10:04:11.165Z,99.99
2016-06-14T10:05:11.325Z,99.99
2016-06-14T10:06:11.328Z,99.99
2016-06-14T10:07:11.347Z,99.99
2016-06-14T10:08:12.131Z,99.99
2016-06-14T10:09:12.884Z,99.99
2016-06-14T10:10:11.793Z,99.99
2016-06-14T10:11:11.390Z,99.99
2016-06-14T10:12:11.393Z,99.99
2016-06-14T10:13:11.974Z,99.99
2016-06-14T10:14:11.399Z,99.99
2016-06-14T10:15:11.402Z,99.99
2016-06-14T10:16:11.483Z,99.99
2016-06-14T10:17:11.424Z,99.99
2016-06-14T10:18:11.443Z,99.99
2016-06-14T10:19:11.446Z,99.99
2016-06-14T10:20:11.464Z,99.99
2016-06-14T10:21:11.452Z,99.99
2016-06-14T10:22:11.471Z,99.99
2016-06-14T10:23:11.474Z,99.99
2016-06-14T10:24:11.493Z,99.99
2016-06-14T10:25:11.511Z,99.99
2016-06-14T10:26:11.499Z,99.99
2016-06-14T10:27:11.517Z,99.99
2016-06-14T10:28:11.521Z,99.99
2016-06-14T10:29:11.523Z,99.99
2016-06-14T10:30:11.542Z,99.99
2016-06-14T10:31:12.451Z,99.99
2016-06-14T10:32:11.548Z,99.99
2016-06-14T10:33:11.568Z,99.99
2016-06-14T10:34:11.571Z,99.99
2016-06-14T10:35:11.588Z,99.99
2016-06-14T10:36:11.608Z,99.99
2016-06-14T10:37:11.439Z,99.99
2016-06-14T10:38:11.614Z,99.99
2016-06-14T10:39:11.617Z,99.99
2016-06-14T10:40:11.636Z,99.99
2016-06-14T10:41:11.638Z,99.99
2016-06-14T10:42:11.501Z,99.99
2016-06-14T10:43:11.660Z,99.99
2016-06-14T10:44:11.664Z,99.99
2016-06-14T10:45:11.683Z,99.99
2016-06-14T10:46:12.263Z,99.99
2016-06-14T10:47:11.876Z,99.99
2016-06-14T10:48:11.706Z,99.99
2016-06-14T10:49:11.709Z,99.99
2016-06-14T10:50:11.729Z,99.99
2016-06-14T10:51:11.732Z,99.99
2016-06-14T10:52:11.735Z,99.99
2016-06-14T10:53:11.597Z,99.99
2016-06-14T10:54:11.758Z,99.99
2016-06-14T10:55:11.775Z,99.99
2016-06-14T10:56:11.778Z,99.99
2016-06-14T10:57:11.798Z,99.99
2016-06-14T10:58:11.815Z,99.99
2016-06-14T10:59:11.803Z,99.99
2016-06-14T11:00:11.821Z,99.99
2016-06-14T11:01:11.825Z,99.99
2016-06-14T11:02:11.828Z,99.99
2016-06-14T11:04:11.850Z,98.05
2016-06-14T11:05:11.869Z,98.25
2016-06-14T11:06:11.872Z,97.81
2016-06-14T11:07:12.031Z,96.89
2016-06-14T11:08:11.893Z,97.13
2016-06-14T11:09:11.896Z,96.8
2016-06-14T11:10:11.899Z,96.36
2016-06-14T11:11:12.105Z,95.25
2016-06-14T11:13:12.174Z,93.9
2016-06-14T11:14:11.927Z,93.9
2016-06-14T11:15:11.931Z,93.66
2016-06-14T11:16:11.950Z,94.68
2016-06-14T11:17:12.217Z,95.02
2016-06-14T11:18:13.346Z,95.02
2016-06-14T11:19:13.334Z,95.94
2016-06-14T11:20:12.446Z,95.94
2016-06-14T11:21:11.966Z,95.94
2016-06-14T11:22:11.968Z,96.46
2016-06-14T11:23:11.972Z,96.85
2016-06-14T11:24:11.975Z,97.62
2016-06-14T11:25:11.977Z,97.81
2016-06-14T11:26:12.277Z,98.63
2016-06-14T11:27:11.984Z,98.92
2016-06-14T11:28:12.282Z,98.72
2016-06-14T11:29:12.365Z,99.11
2016-06-14T11:30:12.024Z,99.59
2016-06-14T11:31:12.621Z,99.49
2016-06-14T11:32:11.999Z,99.59
2016-06-14T11:33:12.002Z,99.78
2016-06-14T11:34:12.005Z,99.99
2016-06-14T11:35:12.008Z,99.99
2016-06-14T11:36:12.011Z,99.99
2016-06-14T11:37:12.030Z,99.99
2016-06-14T11:38:12.033Z,99.99
2016-06-14T11:39:12.036Z,99.99
2016-06-14T11:40:12.039Z,99.99
2016-06-14T11:41:12.041Z,99.99
2016-06-14T11:42:12.030Z,99.99
2016-06-14T11:43:12.048Z,99.99
2016-06-14T11:44:12.051Z,99.99
2016-06-14T11:45:12.054Z,99.99
2016-06-14T11:46:12.057Z,99.99
2016-06-14T11:47:12.060Z,99.99
2016-06-14T11:48:13.641Z,99.99
2016-06-14T11:49:11.926Z,99.99
2016-06-14T11:50:12.070Z,99.99
2016-06-14T11:51:12.073Z,99.99
2016-06-14T11:52:12.076Z,99.99
2016-06-14T11:53:12.079Z,99.99
2016-06-14T11:54:12.081Z,99.99
2016-06-14T11:55:12.101Z,99.99
2016-06-14T11:56:12.104Z,99.99
2016-06-14T11:57:12.106Z,99.99
2016-06-14T11:58:12.110Z,99.99
2016-06-14T11:59:12.128Z,99.99
2016-06-14T12:00:12.116Z,99.99
2016-06-14T12:01:12.134Z,99.99
2016-06-14T12:02:12.137Z,99.99
2016-06-14T12:03:12.141Z,99.99
2016-06-14T12:04:12.144Z,99.99
2016-06-14T12:05:12.163Z,99.99
2016-06-14T12:06:12.165Z,99.99
2016-06-14T12:07:12.168Z,99.99
2016-06-14T12:08:12.172Z,99.99
2016-06-14T12:09:12.175Z,99.99
2016-06-14T12:10:12.178Z,99.99
2016-06-14T12:11:12.197Z,99.99
2016-06-14T12:12:12.200Z,99.99
2016-06-14T12:13:12.203Z,99.99
2016-06-14T12:14:12.221Z,99.99
2016-06-14T12:15:12.225Z,99.99
2016-06-14T12:16:12.227Z,99.99
2016-06-14T12:17:12.231Z,99.99
2016-06-14T12:18:12.233Z,99.99
2016-06-14T12:19:12.565Z,99.99
2016-06-14T12:20:12.255Z,99.99
2016-06-14T12:21:12.681Z,99.99
2016-06-14T12:22:12.824Z,99.99
2016-06-14T12:23:12.281Z,99.99
2016-06-14T12:24:12.283Z,99.99
2016-06-14T12:25:12.287Z,99.99
2016-06-14T12:26:12.306Z,99.99
2016-06-14T12:27:12.308Z,99.99
2016-06-14T12:28:12.967Z,99.99
2016-06-14T12:29:12.627Z,99.99
2016-06-14T12:30:12.333Z,99.99
2016-06-14T12:31:12.930Z,99.99
2016-06-14T12:32:12.839Z,99.99
2016-06-14T12:33:12.343Z,99.99
2016-06-14T12:34:12.361Z,99.99
2016-06-14T12:35:13.146Z,99.99
2016-06-14T12:37:13.636Z,99.99
2016-06-14T12:38:12.390Z,99.99
2016-06-14T12:39:12.392Z,99.99
2016-06-14T12:40:12.395Z,99.99
2016-06-14T12:41:12.993Z,99.99
2016-06-14T12:42:12.417Z,99.99
2016-06-14T12:43:12.420Z,99.99
2016-06-14T12:44:12.439Z,99.99
2016-06-14T12:45:13.208Z,99.99
2016-06-14T12:46:12.445Z,99.99
2016-06-14T12:47:13.495Z,99.99
2016-06-14T12:48:12.654Z,99.99
2016-06-14T12:49:13.049Z,99.99
2016-06-14T12:50:12.973Z,99.99
2016-06-14T12:51:12.477Z,99.99
2016-06-14T12:52:12.495Z,99.99
2016-06-14T12:53:12.498Z,99.99
2016-06-14T12:54:12.516Z,99.99
2016-06-14T12:55:12.505Z,99.99
2016-06-14T12:56:12.508Z,99.99
2016-06-14T12:57:12.511Z,99.99
2016-06-14T12:58:12.529Z,99.99
2016-06-14T12:59:12.548Z,99.99
2016-06-14T13:00:12.535Z,99.99
2016-06-14T13:01:12.538Z,99.99
2016-06-14T13:02:12.557Z,99.99